Time;durP1;ratioP1;P1;durP2;ratioP2;P2;SDS_P1;SDS_P2;PMS_P1;PMS_P2;Temp;Humidity;BMP_temperature;BMP_pressure;BME280_temperature;BME280_humidity;BME280_pressure;Samples;Min_cycle;Max_cycle;Signal;HPM_P1;HPM_P2
2024/02/02 00:01:10;;;;;;;;;;;;;;;5.32;59.74;101969.66;5076580;28;19916;-76
2024/02/02 00:04:02;;;;;;;;;;;;;;;5.20;60.26;101978.91;5073534;28;20472;-76
2024/02/02 00:06:54;;;;;;;;;;;;;;;5.15;60.23;101972.38;5081136;28;19919;-76
2024/02/02 00:09:43;;;;;;;;;;;;;;;5.22;60.63;101972.22;5095530;28;20308;-76
2024/02/02 00:12:35;;;;;;;;;;;;;;;5.32;60.91;101968.84;5093615;28;19912;-76
2024/02/02 00:15:24;;;;;;;;;;;;;;;5.37;59.61;101960.81;5096977;28;19915;-76
2024/02/02 00:18:16;;;;;;;;;;;;;;;5.16;60.90;101963.25;5048636;28;1322693;-76
2024/02/02 00:21:08;;;;;;;;;;;;;;;5.14;61.14;101961.84;5099269;28;19915;-78
2024/02/02 00:24:00;;;;;;;;;;;;;;;5.09;61.90;101969.84;5096939;28;19912;-76
2024/02/02 00:26:52;;;;;;;;;;;;;;;5.37;62.14;101966.22;5096504;28;19916;-75
2024/02/02 00:29:42;;;;;;;;;;;;;;;5.25;61.89;101968.19;5099420;28;19920;-76
2024/02/02 00:32:34;;;;;;;;;;;;;;;5.16;61.25;101968.63;5097804;28;19912;-75
2024/02/02 00:35:26;;;;;;;;;;;;;;;5.22;60.55;101957.91;5095498;28;19916;-78
2024/02/02 00:38:18;;;;;;;;;;;;;;;5.10;61.29;101958.84;5096448;28;19912;-77
2024/02/02 00:41:10;;;;;;;;;;;;;;;5.15;61.30;101953.50;5097204;28;19958;-75
2024/02/02 00:44:02;;;;;;;;;;;;;;;5.17;61.53;101961.38;5100000;28;20377;-75
2024/02/02 00:46:49;;;;;;;;;;;;;;;5.12;60.88;101969.38;5097026;28;19920;-76
2024/02/02 00:49:41;;;;;;;;;;;;;;;5.10;61.43;101960.72;5095790;28;19912;-76
2024/02/02 00:52:33;;;;;;;;;;;;;;;5.04;61.67;101956.31;5099138;28;19911;-77
2024/02/02 00:55:25;;;;;;;;;;;;;;;5.06;62.12;101957.72;5096861;28;19915;-78
2024/02/02 00:58:17;;;;;;;;;;;;;;;5.06;62.04;101960.41;5094131;28;19916;-78
2024/02/02 01:01:09;;;;;;;;;;;;;;;5.06;61.52;101955.00;5098241;28;19916;-77
2024/02/02 01:04:01;;;;;;;;;;;;;;;5.12;62.18;101945.94;5095922;28;19912;-76
2024/02/02 01:06:53;;;;;;;;;;;;;;;5.21;61.43;101949.00;5098927;28;19916;-78
2024/02/02 01:09:43;;;;;;;;;;;;;;;5.45;61.26;101950.41;5097779;28;19912;-76
2024/02/02 01:12:34;;;;;;;;;;;;;;;5.35;60.15;101946.75;5095041;28;19916;-75
2024/02/02 01:15:24;;;;;;;;;;;;;;;5.43;60.18;101959.81;5097749;28;20392;-77
2024/02/02 01:18:16;;;;;;;;;;;;;;;5.26;59.73;101953.66;5094086;28;19912;-78
2024/02/02 01:21:08;;;;;;;;;;;;;;;5.20;59.42;101957.34;5093941;28;19912;-77
2024/02/02 01:24:00;;;;;;;;;;;;;;;5.10;59.48;101958.00;5096950;28;19916;-77
2024/02/02 01:26:52;;;;;;;;;;;;;;;5.11;61.08;101952.38;5094814;28;19915;-78
2024/02/02 01:29:42;;;;;;;;;;;;;;;5.17;60.02;101953.28;5099164;28;19912;-76
2024/02/02 01:32:33;;;;;;;;;;;;;;;5.20;61.09;101941.16;5096898;28;19911;-77
2024/02/02 01:35:25;;;;;;;;;;;;;;;5.13;59.98;101936.75;5093765;28;19915;-76
2024/02/02 01:38:14;;;;;;;;;;;;;;;5.24;59.02;101931.50;5093847;28;19920;-76
2024/02/02 01:41:06;;;;;;;;;;;;;;;5.22;59.20;101933.66;5095493;28;19920;-77
2024/02/02 01:43:58;;;;;;;;;;;;;;;5.02;58.51;101923.41;5093110;28;19911;-77
2024/02/02 01:46:50;;;;;;;;;;;;;;;5.02;59.26;101924.22;5096624;28;19915;-75
2024/02/02 01:49:42;;;;;;;;;;;;;;;5.10;60.05;101939.97;5094662;28;20312;-78
2024/02/02 01:52:31;;;;;;;;;;;;;;;5.27;59.95;101955.28;5093109;28;19916;-76
2024/02/02 01:55:24;;;;;;;;;;;;;;;5.08;60.59;101949.34;5095739;28;19912;-74
2024/02/02 01:58:13;;;;;;;;;;;;;;;4.89;59.91;101938.03;5093907;28;19916;-75
2024/02/02 02:01:05;;;;;;;;;;;;;;;4.99;59.62;101937.38;5098984;28;19916;-78
2024/02/02 02:03:57;;;;;;;;;;;;;;;4.89;59.32;101942.59;5095576;28;19920;-76
2024/02/02 02:06:49;;;;;;;;;;;;;;;5.01;60.08;101938.75;5093460;28;19916;-77
2024/02/02 02:09:41;;;;;;;;;;;;;;;5.06;60.48;101952.31;5097065;28;19912;-77
2024/02/02 02:12:31;;;;;;;;;;;;;;;4.96;59.97;101952.16;5094900;28;19915;-76
2024/02/02 02:15:23;;;;;;;;;;;;;;;4.93;60.10;101944.56;5092438;28;19916;-75
2024/02/02 02:18:15;;;;;;;;;;;;;;;4.97;59.31;101943.03;5093839;28;19912;-76
2024/02/02 02:21:22;;;;;;;;;;;;;;;5.03;59.60;101949.28;5094272;28;19916;-77
2024/02/02 02:24:14;;;;;;;;;;;;;;;4.90;59.35;101955.84;5096862;28;20503;-75
2024/02/02 02:27:04;;;;;;;;;;;;;;;4.92;60.72;101953.72;5094437;28;19920;-75
2024/02/02 02:29:56;;;;;;;;;;;;;;;4.91;60.07;101951.28;5072256;28;19912;-76
2024/02/02 02:32:48;;;;;;;;;;;;;;;4.85;60.12;101946.88;5075828;28;19916;-75
2024/02/02 02:35:37;;;;;;;;;;;;;;;4.95;59.56;101953.22;5073346;28;19916;-76
2024/02/02 02:38:29;;;;;;;;;;;;;;;5.07;58.81;101948.56;5073037;28;19913;-76
2024/02/02 02:41:19;;;;;;;;;;;;;;;5.06;59.63;101944.22;5075621;28;19916;-76
2024/02/02 02:44:08;;;;;;;;;;;;;;;4.80;59.90;101936.00;5073034;28;20300;-76
2024/02/02 02:47:00;;;;;;;;;;;;;;;4.79;60.03;101935.19;5076306;28;19916;-76
2024/02/02 02:49:52;;;;;;;;;;;;;;;4.93;59.05;101931.09;5074966;28;20401;-75
2024/02/02 02:52:44;;;;;;;;;;;;;;;4.88;59.58;101924.81;5072415;28;19912;-76
2024/02/02 02:55:35;;;;;;;;;;;;;;;4.94;59.65;101935.41;5074913;28;19912;-78
2024/02/02 02:58:27;;;;;;;;;;;;;;;5.06;59.38;101925.34;5072318;28;19920;-77
2024/02/02 03:01:36;;;;;;;;;;;;;;;5.13;60.13;101928.66;5076910;28;20616;-76
2024/02/02 03:04:28;;;;;;;;;;;;;;;5.16;59.55;101933.59;5073806;28;19912;-75
2024/02/02 03:07:20;;;;;;;;;;;;;;;5.37;58.95;101929.28;5071701;28;19916;-76
2024/02/02 03:10:12;;;;;;;;;;;;;;;5.41;58.69;101932.28;5075242;28;19916;-76
2024/02/02 03:13:04;;;;;;;;;;;;;;;5.38;58.28;101938.19;5077042;28;19916;-75
2024/02/02 03:15:51;;;;;;;;;;;;;;;5.29;58.60;101937.78;5074978;28;19912;-77
2024/02/02 03:18:43;;;;;;;;;;;;;;;5.36;58.37;101932.22;5075138;28;19916;-76
2024/02/02 03:21:35;;;;;;;;;;;;;;;5.41;59.25;101935.78;5076429;28;20395;-76
2024/02/02 03:24:27;;;;;;;;;;;;;;;5.35;58.89;101926.00;5079914;28;19912;-76
2024/02/02 03:27:18;;;;;;;;;;;;;;;5.29;59.14;101931.56;5077270;28;19916;-75
2024/02/02 03:30:09;;;;;;;;;;;;;;;5.37;58.43;101926.56;5075586;28;19916;-75
2024/02/02 03:33:01;;;;;;;;;;;;;;;5.37;58.46;101915.78;5079600;28;19912;-75
2024/02/02 03:35:53;;;;;;;;;;;;;;;5.41;57.99;101924.19;5076904;28;19916;-77
2024/02/02 03:38:45;;;;;;;;;;;;;;;5.38;58.34;101933.59;5074677;28;19917;-76
2024/02/02 03:41:34;;;;;;;;;;;;;;;5.41;58.59;101924.19;5078515;28;19920;-75
2024/02/02 03:44:21;;;;;;;;;;;;;;;5.41;59.91;101932.28;5076397;28;19912;-77
2024/02/02 03:47:13;;;;;;;;;;;;;;;5.45;58.76;101928.81;5078698;28;19921;-77
2024/02/02 03:50:05;;;;;;;;;;;;;;;5.44;58.07;101918.28;5081590;28;19916;-78
2024/02/02 03:52:57;;;;;;;;;;;;;;;5.29;58.87;101913.50;5076157;28;19916;-76
2024/02/02 03:55:49;;;;;;;;;;;;;;;5.18;59.36;101919.03;5080576;28;20369;-76
2024/02/02 03:58:41;;;;;;;;;;;;;;;5.11;60.37;101928.13;5074821;28;20369;-76
2024/02/02 04:01:33;;;;;;;;;;;;;;;4.98;58.59;101925.75;5074808;28;19936;-76
2024/02/02 04:04:25;;;;;;;;;;;;;;;4.91;58.85;101930.53;5078645;28;20340;-76
2024/02/02 04:07:17;;;;;;;;;;;;;;;4.80;59.12;101933.31;5075673;28;19920;-76
2024/02/02 04:10:09;;;;;;;;;;;;;;;4.72;59.63;101929.19;5079695;28;20385;-76
2024/02/02 04:13:01;;;;;;;;;;;;;;;4.72;60.12;101923.78;5077985;28;20388;-76
2024/02/02 04:15:51;;;;;;;;;;;;;;;4.78;59.77;101932.72;5075104;28;19912;-78
2024/02/02 04:18:49;;;;;;;;;;;;;;;4.89;59.09;101931.81;5073853;28;19912;-76
2024/02/02 04:21:41;;;;;;;;;;;;;;;4.87;58.50;101942.06;5076172;28;19916;-76
2024/02/02 04:24:33;;;;;;;;;;;;;;;4.82;58.84;101941.97;5073518;28;19913;-76
2024/02/02 04:27:25;;;;;;;;;;;;;;;4.60;59.39;101942.72;5077278;28;19916;-76
2024/02/02 04:30:17;;;;;;;;;;;;;;;4.64;58.29;101941.16;5075721;28;19916;-76
2024/02/02 04:33:09;;;;;;;;;;;;;;;4.46;58.51;101935.22;5078817;28;19916;-78
2024/02/02 04:36:01;;;;;;;;;;;;;;;4.28;58.84;101950.53;5076151;28;19916;-78
2024/02/02 04:38:53;;;;;;;;;;;;;;;4.29;58.67;101946.78;5074357;28;19912;-76
2024/02/02 04:41:45;;;;;;;;;;;;;;;4.23;59.21;101939.66;5077924;28;19916;-78
2024/02/02 04:44:37;;;;;;;;;;;;;;;4.24;58.97;101941.31;5075997;28;20300;-79
2024/02/02 04:47:29;;;;;;;;;;;;;;;4.14;59.36;101951.91;5073523;28;19917;-76
2024/02/02 04:50:21;;;;;;;;;;;;;;;4.05;59.62;101958.75;5078169;28;19917;-76
2024/02/02 04:53:13;;;;;;;;;;;;;;;4.09;60.49;101965.25;5075711;28;19912;-76
2024/02/02 04:56:04;;;;;;;;;;;;;;;4.15;60.01;101963.50;5078835;28;19938;-76
2024/02/02 04:58:56;;;;;;;;;;;;;;;4.12;59.49;101970.16;5076685;28;20369;-76
2024/02/02 05:01:48;;;;;;;;;;;;;;;4.25;59.76;101967.19;5075074;28;19912;-77
2024/02/02 05:04:41;;;;;;;;;;;;;;;4.12;60.22;101970.16;5078705;28;19916;-74
2024/02/02 05:07:37;;;;;;;;;;;;;;;4.36;60.23;101964.66;5077705;28;20393;-76
2024/02/02 05:10:29;;;;;;;;;;;;;;;4.29;58.72;101975.56;5079235;28;19916;-76
2024/02/02 05:13:21;;;;;;;;;;;;;;;4.10;60.10;101980.38;5097505;28;20316;-76
2024/02/02 05:16:11;;;;;;;;;;;;;;;4.00;59.46;101968.59;5095969;28;19912;-75
2024/02/02 05:19:03;;;;;;;;;;;;;;;3.99;59.86;101978.53;5100001;28;19915;-74
2024/02/02 05:21:55;;;;;;;;;;;;;;;4.27;60.20;101983.88;5096690;28;19912;-77
2024/02/02 05:24:46;;;;;;;;;;;;;;;4.37;59.14;101987.84;5101074;28;19912;-76
2024/02/02 05:27:41;;;;;;;;;;;;;;;4.22;59.45;101981.09;5097368;28;19919;-77
2024/02/02 05:30:33;;;;;;;;;;;;;;;4.16;60.17;102002.81;5095253;28;19916;-76
2024/02/02 05:33:25;;;;;;;;;;;;;;;3.98;60.90;102003.81;5089396;28;19912;-76
2024/02/02 05:36:16;;;;;;;;;;;;;;;3.74;59.74;101992.31;5092366;28;19916;-76
2024/02/02 05:39:09;;;;;;;;;;;;;;;3.51;61.44;102000.41;5094858;28;19916;-76
2024/02/02 05:42:03;;;;;;;;;;;;;;;3.51;60.55;101996.91;5097841;28;19912;-76
2024/02/02 05:44:53;;;;;;;;;;;;;;;3.68;60.30;101987.88;5095680;28;19912;-77
2024/02/02 05:47:42;;;;;;;;;;;;;;;3.55;60.87;101993.53;5092283;28;20475;-76
2024/02/02 05:50:31;;;;;;;;;;;;;;;3.55;61.68;101995.41;5095871;28;20392;-78
2024/02/02 05:53:23;;;;;;;;;;;;;;;3.51;61.03;102004.97;5093752;28;19915;-76
2024/02/02 05:56:15;;;;;;;;;;;;;;;3.52;61.35;101996.69;5095505;28;19912;-78
2024/02/02 05:59:07;;;;;;;;;;;;;;;3.49;61.64;101997.16;5095829;28;19915;-77
2024/02/02 06:01:59;;;;;;;;;;;;;;;3.60;61.86;102006.25;5087820;28;20303;-74
2024/02/02 06:04:51;;;;;;;;;;;;;;;3.54;62.75;102004.50;5098037;28;20293;-77
2024/02/02 06:07:43;;;;;;;;;;;;;;;3.66;62.72;102007.97;5096579;28;19915;-76
2024/02/02 06:10:35;;;;;;;;;;;;;;;3.68;62.14;102006.69;5095204;28;20369;-76
2024/02/02 06:13:25;;;;;;;;;;;;;;;3.60;62.22;102003.56;5097806;28;19920;-77
2024/02/02 06:16:17;;;;;;;;;;;;;;;3.66;62.11;102003.41;5095216;28;19912;-76
2024/02/02 06:19:09;;;;;;;;;;;;;;;3.90;61.81;102004.19;5092789;28;19912;-76
2024/02/02 06:21:58;;;;;;;;;;;;;;;3.97;61.19;102007.53;5097598;28;19912;-76
2024/02/02 06:24:50;;;;;;;;;;;;;;;3.92;60.60;102009.31;5096012;28;19912;-76
2024/02/02 06:27:42;;;;;;;;;;;;;;;3.81;60.41;102014.50;5097197;28;19920;-77
2024/02/02 06:30:34;;;;;;;;;;;;;;;3.88;61.45;102009.81;5095226;28;19915;-77
2024/02/02 06:33:26;;;;;;;;;;;;;;;3.84;61.40;102018.59;5090016;28;19912;-75
2024/02/02 06:36:18;;;;;;;;;;;;;;;3.90;61.05;102019.50;5096856;28;19912;-77
2024/02/02 06:39:10;;;;;;;;;;;;;;;3.87;61.16;102027.00;5095102;28;19912;-77
2024/02/02 06:41:57;;;;;;;;;;;;;;;3.88;61.66;102027.81;5092407;28;19912;-77
2024/02/02 06:44:49;;;;;;;;;;;;;;;3.85;61.76;102036.38;5096636;28;19912;-76
2024/02/02 06:47:38;;;;;;;;;;;;;;;3.81;62.05;102041.41;5098039;28;19916;-79
2024/02/02 06:50:30;;;;;;;;;;;;;;;3.89;65.23;102050.97;5096248;28;19916;-76
2024/02/02 06:53:22;;;;;;;;;;;;;;;4.05;64.34;102063.69;5098590;28;20395;-76
2024/02/02 06:56:31;;;;;;;;;;;;;;;3.91;62.59;102056.97;5103732;28;19916;-74
2024/02/02 06:59:20;;;;;;;;;;;;;;;3.89;61.86;102061.75;5100768;28;19912;-76
2024/02/02 07:02:29;;;;;;;;;;;;;;;3.85;62.40;102055.22;5103553;28;19912;-76
2024/02/02 07:05:21;;;;;;;;;;;;;;;3.97;64.19;102057.84;5081345;28;19912;-77
2024/02/02 07:08:13;;;;;;;;;;;;;;;4.18;62.49;102066.09;5086115;28;19919;-80
2024/02/02 07:11:25;;;;;;;;;;;;;;;4.40;61.25;102073.53;5098693;28;19919;-79
2024/02/02 07:14:27;;;;;;;;;;;;;;;4.61;60.60;102084.44;5100681;28;19912;-77
2024/02/02 07:17:35;;;;;;;;;;;;;;;4.73;59.30;102081.66;5098133;28;19915;-78
2024/02/02 07:20:28;;;;;;;;;;;;;;;4.84;59.46;102086.19;5082738;28;19916;-77
2024/02/02 07:23:27;;;;;;;;;;;;;;;3.16;63.37;102086.44;5097009;28;19912;-77
2024/02/02 07:26:27;;;;;;;;;;;;;;;2.48;66.88;102089.56;5099366;28;19920;-76
2024/02/02 07:29:35;;;;;;;;;;;;;;;2.38;68.03;102108.09;5097368;28;20648;-76
2024/02/02 07:32:27;;;;;;;;;;;;;;;2.37;68.40;102122.53;5099934;28;19911;-76
2024/02/02 07:35:28;;;;;;;;;;;;;;;2.54;68.21;102120.03;5097042;28;19916;-75
2024/02/02 07:38:36;;;;;;;;;;;;;;;2.64;68.27;102111.47;5094228;28;20376;-77
2024/02/02 07:41:29;;;;;;;;;;;;;;;3.03;68.01;102115.41;5091609;28;19915;-79
2024/02/02 07:44:19;;;;;;;;;;;;;;;3.43;66.34;102116.41;5090121;28;19916;-76
2024/02/02 07:47:11;;;;;;;;;;;;;;;3.56;65.81;102118.84;5095979;28;19916;-76
2024/02/02 07:50:03;;;;;;;;;;;;;;;3.80;64.75;102127.75;5092087;28;19912;-75
2024/02/02 07:52:55;;;;;;;;;;;;;;;3.86;65.31;102119.53;5093692;28;19916;-76
2024/02/02 07:55:47;;;;;;;;;;;;;;;4.14;64.52;102123.34;5092526;28;19916;-79
2024/02/02 07:58:39;;;;;;;;;;;;;;;4.08;64.74;102127.81;5092560;28;19916;-77
2024/02/02 08:01:31;;;;;;;;;;;;;;;4.01;65.78;102134.38;5099270;28;19912;-77
2024/02/02 08:04:23;;;;;;;;;;;;;;;3.72;66.23;102133.47;5092977;28;20319;-77
2024/02/02 08:07:12;;;;;;;;;;;;;;;3.69;67.47;102125.88;5104990;28;19920;-78
2024/02/02 08:10:04;;;;;;;;;;;;;;;3.83;67.87;102125.38;5098281;28;19912;-79
2024/02/02 08:12:56;;;;;;;;;;;;;;;3.31;70.58;102129.81;5096251;28;19912;-78
2024/02/02 08:15:48;;;;;;;;;;;;;;;3.69;70.68;102134.75;5093767;28;19920;-77
2024/02/02 08:18:40;;;;;;;;;;;;;;;3.94;68.86;102129.13;5092164;28;19916;-78
2024/02/02 08:21:32;;;;;;;;;;;;;;;4.10;68.55;102131.09;5094512;28;19920;-80
2024/02/02 08:24:22;;;;;;;;;;;;;;;4.35;66.92;102135.34;5095123;28;20381;-77
2024/02/02 08:27:11;;;;;;;;;;;;;;;4.28;66.37;102130.09;5096423;28;19920;-77
2024/02/02 08:30:03;;;;;;;;;;;;;;;4.41;67.53;102142.47;5086504;28;19912;-77
2024/02/02 08:32:59;;;;;;;;;;;;;;;4.72;65.46;102118.56;5095097;28;19915;-77
2024/02/02 08:35:51;;;;;;;;;;;;;;;4.55;66.66;102119.59;5088954;28;19916;-77
2024/02/02 08:38:43;;;;;;;;;;;;;;;4.77;66.61;102120.56;5092463;28;19912;-76
2024/02/02 08:41:36;;;;;;;;;;;;;;;4.78;66.80;102110.56;5096965;28;19912;-76
2024/02/02 08:44:30;;;;;;;;;;;;;;;4.89;66.71;102098.91;5094772;28;20305;-76
2024/02/02 08:47:23;;;;;;;;;;;;;;;4.75;67.72;102106.50;5096684;28;19916;-77
2024/02/02 08:50:14;;;;;;;;;;;;;;;4.95;68.13;102114.13;5090616;28;20532;-77
2024/02/02 08:53:03;;;;;;;;;;;;;;;4.95;67.84;102120.34;5093638;28;20634;-75
2024/02/02 08:55:55;;;;;;;;;;;;;;;5.06;67.30;102118.63;5097212;28;19911;-78
2024/02/02 08:58:44;;;;;;;;;;;;;;;5.24;66.94;102121.06;5093051;28;19916;-76
2024/02/02 09:01:49;;;;;;;;;;;;;;;5.38;67.14;102129.69;5099056;28;19911;-77
2024/02/02 09:04:55;;;;;;;;;;;;;;;5.20;67.93;102138.00;5091683;28;20372;-76
2024/02/02 09:07:50;;;;;;;;;;;;;;;5.25;67.16;102135.38;5105670;28;19935;-76
2024/02/02 09:10:43;;;;;;;;;;;;;;;5.50;67.09;102138.47;5096781;28;20385;-78
2024/02/02 09:13:35;;;;;;;;;;;;;;;5.52;66.35;102141.75;5093592;28;20304;-77
2024/02/02 09:16:34;;;;;;;;;;;;;;;5.55;65.32;102141.25;5090103;28;20002;-78
2024/02/02 09:19:41;;;;;;;;;;;;;;;5.67;64.75;102142.00;5096097;28;19912;-78
2024/02/02 09:22:32;;;;;;;;;;;;;;;5.73;65.20;102143.72;5092961;28;19916;-78
2024/02/02 09:25:25;;;;;;;;;;;;;;;5.84;64.81;102137.38;5094766;28;19946;-77
2024/02/02 09:28:37;;;;;;;;;;;;;;;5.90;64.58;102138.28;5088395;28;19916;-77
2024/02/02 09:31:30;;;;;;;;;;;;;;;5.99;63.72;102140.31;5089901;28;19916;-79
2024/02/02 09:34:29;;;;;;;;;;;;;;;6.14;64.38;102144.31;5090883;28;19916;-76
2024/02/02 09:37:26;;;;;;;;;;;;;;;6.22;64.13;102141.97;5091548;28;19911;-77
2024/02/02 09:40:28;;;;;;;;;;;;;;;6.38;63.90;102145.69;5093412;28;19916;-78
2024/02/02 09:43:40;;;;;;;;;;;;;;;6.59;63.12;102136.75;5091833;28;19916;-79
2024/02/02 09:46:41;;;;;;;;;;;;;;;6.97;63.89;102138.47;5095992;28;19916;-78
2024/02/02 09:49:49;;;;;;;;;;;;;;;7.39;61.04;102146.69;5088700;28;19916;-77
2024/02/02 09:52:42;;;;;;;;;;;;;;;7.45;61.23;102144.84;5094802;28;19916;-77
2024/02/02 09:55:45;;;;;;;;;;;;;;;7.82;60.16;102144.84;5092109;28;19912;-76
2024/02/02 09:58:38;;;;;;;;;;;;;;;7.98;59.50;102154.66;5092459;28;19912;-79
2024/02/02 10:01:44;;;;;;;;;;;;;;;8.18;59.19;102149.34;5093738;28;19912;-77
2024/02/02 10:04:56;;;;;;;;;;;;;;;8.36;58.61;102146.22;5095176;28;19912;-76
2024/02/02 10:08:18;;;;;;;;;;;;;;;8.61;57.33;102141.97;5092822;28;19923;-78
2024/02/02 10:11:10;;;;;;;;;;;;;;;9.00;56.26;102149.38;5094150;28;19912;-79
2024/02/02 10:14:15;;;;;;;;;;;;;;;9.44;55.40;102144.25;5086042;28;19912;-82
2024/02/02 10:17:08;;;;;;;;;;;;;;;9.43;54.89;102134.47;5096150;28;19912;-81
2024/02/02 10:20:16;;;;;;;;;;;;;;;9.59;55.60;102148.03;5095353;28;19915;-83
2024/02/02 10:23:24;;;;;;;;;;;;;;;9.61;55.60;102146.66;5100964;28;19912;-82
2024/02/02 10:26:29;;;;;;;;;;;;;;;10.03;53.75;102142.78;5097709;28;19923;-82
2024/02/02 10:29:41;;;;;;;;;;;;;;;10.45;54.59;102128.78;5101891;28;19916;-82
2024/02/02 10:32:50;;;;;;;;;;;;;;;10.59;53.43;102136.03;5078341;28;19912;-80
2024/02/02 10:35:53;;;;;;;;;;;;;;;10.79;53.39;102135.13;5099930;28;19916;-79
2024/02/02 10:39:09;;;;;;;;;;;;;;;11.05;52.11;102131.13;5095197;28;19912;-78
2024/02/02 10:42:16;;;;;;;;;;;;;;;11.07;53.06;102126.19;5099094;28;19916;-77
2024/02/02 10:45:23;;;;;;;;;;;;;;;11.36;51.88;102128.16;5096957;28;20380;-77
2024/02/02 10:48:30;;;;;;;;;;;;;;;11.62;51.32;102110.50;5096458;28;19916;-76
2024/02/02 10:51:32;;;;;;;;;;;;;;;11.81;51.35;102118.75;5096985;28;19916;-78
2024/02/02 10:54:31;;;;;;;;;;;;;;;12.00;50.46;102119.63;5100501;28;19912;-80
2024/02/02 10:57:32;;;;;;;;;;;;;;;12.14;49.61;102112.38;5097492;28;19916;-77
2024/02/02 11:00:25;;;;;;;;;;;;;;;12.49;48.64;102118.50;5095425;28;19916;-80
2024/02/02 11:03:38;;;;;;;;;;;;;;;12.33;49.71;102109.69;5097943;28;19912;-77
2024/02/02 11:06:32;;;;;;;;;;;;;;;12.38;48.68;102109.63;5082544;28;19915;-79
2024/02/02 11:09:32;;;;;;;;;;;;;;;12.53;48.20;102106.69;5078785;28;19920;-78
2024/02/02 11:12:26;;;;;;;;;;;;;;;13.06;47.35;102117.34;5076151;28;19912;-76
2024/02/02 11:15:23;;;;;;;;;;;;;;;13.38;46.53;102101.00;5079248;28;20304;-78
2024/02/02 11:18:19;;;;;;;;;;;;;;;13.43;46.91;102090.00;5075655;28;20393;-79
2024/02/02 11:21:18;;;;;;;;;;;;;;;13.51;45.62;102089.28;5074428;28;19913;-78
2024/02/02 11:24:26;;;;;;;;;;;;;;;13.65;45.01;102087.41;5077726;28;19913;-79
2024/02/02 11:27:22;;;;;;;;;;;;;;;13.81;44.51;102079.72;5074449;28;19920;-78
2024/02/02 11:30:22;;;;;;;;;;;;;;;14.23;44.12;102075.03;5094221;28;19942;-78
2024/02/02 11:33:29;;;;;;;;;;;;;;;14.57;43.79;102071.84;5092625;28;19915;-78
2024/02/02 11:36:37;;;;;;;;;;;;;;;14.17;44.08;102066.09;5094122;28;19915;-79
2024/02/02 11:39:38;;;;;;;;;;;;;;;14.08;43.48;102062.47;5093110;28;19916;-79
2024/02/02 11:42:31;;;;;;;;;;;;;;;14.21;43.53;102069.06;5094462;28;19912;-77
2024/02/02 11:45:23;;;;;;;;;;;;;;;14.76;42.20;102072.50;5075828;28;19916;-77
2024/02/02 11:48:24;;;;;;;;;;;;;;;15.05;41.78;102070.13;5073633;28;19917;-78
2024/02/02 11:51:16;;;;;;;;;;;;;;;15.77;39.81;102061.66;5077145;28;19916;-77
2024/02/02 11:54:11;;;;;;;;;;;;;;;15.53;39.83;102069.47;5075040;28;20316;-79
2024/02/02 11:57:06;;;;;;;;;;;;;;;16.12;38.76;102060.63;5094676;28;19915;-79
2024/02/02 12:00:00;;;;;;;;;;;;;;;15.97;37.77;102074.00;5096406;28;20304;-77
2024/02/02 12:03:14;;;;;;;;;;;;;;;16.40;38.19;102066.69;5093178;28;20593;-79
2024/02/02 12:06:12;;;;;;;;;;;;;;;16.53;37.97;102054.72;5096214;28;19916;-80
2024/02/02 12:09:11;;;;;;;;;;;;;;;16.76;37.58;102071.88;5094290;28;19920;-79
2024/02/02 12:12:01;;;;;;;;;;;;;;;16.85;37.14;102069.13;5097270;28;19912;-79
2024/02/02 12:14:56;;;;;;;;;;;;;;;17.19;35.60;102060.03;5094813;28;19911;-79
2024/02/02 12:17:48;;;;;;;;;;;;;;;17.30;35.81;102064.03;5096046;28;19912;-79
2024/02/02 12:20:39;;;;;;;;;;;;;;;17.35;36.54;102052.88;5096155;28;19920;-81
2024/02/02 12:23:30;;;;;;;;;;;;;;;17.51;36.76;102049.25;5093958;28;20364;-78
2024/02/02 12:26:22;;;;;;;;;;;;;;;18.02;35.43;102038.34;5097382;28;19915;-79
2024/02/02 12:29:14;;;;;;;;;;;;;;;16.51;37.88;102028.69;5095667;28;19916;-79
2024/02/02 12:32:06;;;;;;;;;;;;;;;17.38;36.29;102036.50;5093395;28;20300;-78
2024/02/02 12:34:58;;;;;;;;;;;;;;;18.33;34.97;102033.28;5096716;28;19912;-79
2024/02/02 12:37:50;;;;;;;;;;;;;;;18.31;34.42;102030.06;5094642;28;19916;-80
2024/02/02 12:40:42;;;;;;;;;;;;;;;18.70;34.15;102032.34;5098366;28;19916;-79
2024/02/02 12:43:34;;;;;;;;;;;;;;;19.16;32.32;102022.16;5094658;28;19912;-79
2024/02/02 12:46:26;;;;;;;;;;;;;;;19.38;32.64;102020.94;5093212;28;20368;-79
2024/02/02 12:49:24;;;;;;;;;;;;;;;19.04;32.66;102019.38;5097023;28;19920;-80
2024/02/02 12:52:14;;;;;;;;;;;;;;;18.93;32.39;102012.69;5079780;28;19912;-79
2024/02/02 12:55:06;;;;;;;;;;;;;;;19.97;30.77;102018.56;5095368;28;19912;-79
2024/02/02 12:57:56;;;;;;;;;;;;;;;20.17;29.27;102012.06;5094282;28;19912;-79
2024/02/02 13:00:48;;;;;;;;;;;;;;;20.29;29.52;102003.78;5094426;28;19916;-80
2024/02/02 13:03:40;;;;;;;;;;;;;;;20.19;29.91;101990.44;5097290;28;19915;-79
2024/02/02 13:06:31;;;;;;;;;;;;;;;20.23;29.24;101996.88;5095110;28;19912;-79
2024/02/02 13:09:24;;;;;;;;;;;;;;;19.96;30.08;101989.34;5093015;28;19919;-80
2024/02/02 13:12:26;;;;;;;;;;;;;;;20.77;28.60;101977.13;5096754;28;19916;-79
2024/02/02 13:15:16;;;;;;;;;;;;;;;21.44;27.94;101975.31;5093448;28;19916;-78
2024/02/02 13:18:10;;;;;;;;;;;;;;;20.79;28.72;101992.19;5094337;28;19912;-78
2024/02/02 13:21:01;;;;;;;;;;;;;;;21.39;27.42;102000.50;5095776;28;19916;-80
2024/02/02 13:23:53;;;;;;;;;;;;;;;21.86;26.67;102004.03;5091174;28;19916;-78
2024/02/02 13:26:43;;;;;;;;;;;;;;;23.28;26.00;102009.75;5096151;28;19912;-78
2024/02/02 13:29:48;;;;;;;;;;;;;;;22.99;25.93;102000.09;5094727;28;20293;-78
2024/02/02 13:32:41;;;;;;;;;;;;;;;22.01;26.26;102000.44;5097913;28;20368;-79
2024/02/02 13:35:31;;;;;;;;;;;;;;;25.15;23.07;102017.13;5094829;28;20288;-78
2024/02/02 13:38:23;;;;;;;;;;;;;;;25.52;21.75;102012.28;5093056;28;19912;-77
2024/02/02 13:41:15;;;;;;;;;;;;;;;27.36;19.43;102012.34;5096544;28;19912;-79
2024/02/02 13:44:07;;;;;;;;;;;;;;;27.18;19.05;101995.56;5094070;28;19920;-79
2024/02/02 13:46:59;;;;;;;;;;;;;;;24.53;21.88;101977.09;5091846;28;19920;-79
2024/02/02 13:49:55;;;;;;;;;;;;;;;25.99;21.47;101977.22;5095812;28;20399;-78
2024/02/02 13:52:47;;;;;;;;;;;;;;;25.89;20.27;101986.31;5093204;28;19916;-77
2024/02/02 13:55:39;;;;;;;;;;;;;;;24.90;20.46;101986.25;5096483;28;19915;-79
2024/02/02 13:58:37;;;;;;;;;;;;;;;27.89;17.58;101992.75;5092337;28;19912;-79
2024/02/02 14:01:29;;;;;;;;;;;;;;;29.80;16.21;101992.84;5090958;28;19912;-80
2024/02/02 14:04:24;;;;;;;;;;;;;;;29.28;15.99;101985.28;5091388;28;19912;-79
2024/02/02 14:07:19;;;;;;;;;;;;;;;29.37;16.16;101976.41;5093004;28;19911;-79
2024/02/02 14:10:11;;;;;;;;;;;;;;;28.21;16.91;101994.69;5096801;28;20373;-79
2024/02/02 14:13:01;;;;;;;;;;;;;;;29.45;16.15;101993.97;5094759;28;19912;-79
2024/02/02 14:15:54;;;;;;;;;;;;;;;28.73;16.94;101987.28;5092110;28;19915;-78
2024/02/02 14:18:43;;;;;;;;;;;;;;;29.39;16.76;101985.22;5091338;28;19912;-78
2024/02/02 14:21:37;;;;;;;;;;;;;;;27.14;18.74;101983.59;5093925;28;19916;-79
2024/02/02 14:24:29;;;;;;;;;;;;;;;25.89;19.69;101997.47;5091748;28;19912;-77
2024/02/02 14:27:21;;;;;;;;;;;;;;;27.34;18.63;101988.78;5090955;28;19912;-80
2024/02/02 14:30:20;;;;;;;;;;;;;;;29.21;16.70;101988.13;5086503;28;19912;-80
2024/02/02 14:33:12;;;;;;;;;;;;;;;28.36;17.80;101990.63;5076358;28;19912;-80
2024/02/02 14:36:09;;;;;;;;;;;;;;;23.78;21.75;101976.06;5073791;28;19912;-80
2024/02/02 14:39:01;;;;;;;;;;;;;;;25.82;19.56;101978.69;5071694;28;19916;-78
2024/02/02 14:41:53;;;;;;;;;;;;;;;23.30;22.35;101985.19;5075060;28;19916;-79
2024/02/02 14:44:45;;;;;;;;;;;;;;;22.07;24.44;101987.94;5072795;28;19912;-78
2024/02/02 14:47:37;;;;;;;;;;;;;;;24.75;20.90;101984.47;5098595;28;20295;-80
2024/02/02 14:50:29;;;;;;;;;;;;;;;24.27;21.80;101986.31;5094043;28;19916;-80
2024/02/02 14:53:21;;;;;;;;;;;;;;;23.57;23.42;101997.94;5090486;28;19916;-77
2024/02/02 14:56:18;;;;;;;;;;;;;;;23.83;22.38;102003.53;5087315;28;19919;-79
2024/02/02 14:59:14;;;;;;;;;;;;;;;24.96;21.43;101995.06;5096027;28;19916;-77
2024/02/02 15:02:04;;;;;;;;;;;;;;;23.40;23.65;101992.91;5091545;28;19916;-78